createdAt,value
2022-10-28T00:00:03.012Z,19.42
2022-10-28T00:06:06.224Z,14.85
2022-10-28T00:12:03.867Z,17.35
2022-10-28T00:17:38.016Z,14.57
2022-10-28T00:20:24.285Z,16.00
2022-10-28T00:22:59.637Z,14.48
2022-10-28T00:25:49.537Z,17.70
2022-10-28T00:28:26.933Z,14.40
2022-10-28T00:31:09.081Z,18.55
2022-10-28T00:33:54.715Z,15.38
2022-10-28T00:36:33.542Z,14.57
2022-10-28T00:39:15.168Z,15.25
2022-10-28T00:42:00.120Z,24.45
2022-10-28T00:48:05.037Z,12.23
2022-10-28T00:53:57.086Z,17.17
2022-10-28T00:56:41.534Z,15.50
2022-10-28T00:59:54.471Z,15.75
2022-10-28T01:02:45.138Z,14.93
2022-10-28T01:05:51.019Z,18.92
2022-10-28T01:11:54.499Z,13.45
2022-10-28T01:15:04.716Z,16.90
2022-10-28T01:18:10.894Z,16.65
2022-10-28T01:21:20.155Z,17.27
2022-10-28T01:24:18.818Z,17.05
2022-10-28T01:27:41.087Z,18.48
2022-10-28T01:30:28.816Z,14.93
2022-10-28T01:45:36.050Z,13.40
2022-10-28T01:48:45.939Z,14.25
2022-10-28T01:51:25.170Z,18.75
2022-10-28T01:54:16.857Z,22.45
2022-10-28T01:59:56.653Z,17.75
2022-10-28T02:02:39.835Z,18.23
2022-10-28T02:06:01.145Z,18.02
2022-10-28T02:09:19.125Z,14.25
2022-10-28T02:12:30.672Z,18.33
2022-10-28T02:15:41.187Z,19.80
2022-10-28T02:21:28.513Z,17.30
2022-10-28T02:24:28.369Z,21.40
2022-10-28T02:33:19.363Z,31.38
2022-10-28T02:36:05.111Z,19.70
2022-10-28T02:38:48.380Z,21.30
2022-10-28T02:41:51.865Z,24.95
2022-10-28T02:48:14.758Z,21.30
2022-10-28T02:54:25.646Z,20.30
2022-10-28T02:57:04.822Z,22.25
2022-10-28T02:59:32.872Z,21.75
2022-10-28T03:02:20.647Z,24.35
2022-10-28T03:04:52.422Z,21.48
2022-10-28T03:07:19.920Z,22.75
2022-10-28T03:10:16.884Z,21.80
2022-10-28T03:12:50.594Z,25.33
2022-10-28T03:15:31.092Z,14.02
2022-10-28T03:18:16.693Z,18.52
2022-10-28T03:20:46.950Z,23.00
2022-10-28T03:23:30.872Z,24.75
2022-10-28T03:25:57.826Z,20.90
2022-10-28T03:31:25.253Z,22.63
2022-10-28T03:34:18.741Z,16.92
2022-10-28T03:36:49.039Z,21.23
2022-10-28T03:39:22.629Z,19.00
2022-10-28T03:42:08.528Z,20.42
2022-10-28T03:44:51.745Z,24.75
2022-10-28T03:47:27.162Z,20.10
2022-10-28T03:49:59.162Z,21.45
2022-10-28T03:52:41.024Z,18.23
2022-10-28T03:55:29.637Z,18.75
2022-10-28T03:58:01.328Z,18.42
2022-10-28T04:01:02.093Z,22.77
2022-10-28T04:03:54.919Z,17.65
2022-10-28T04:06:37.867Z,20.50
2022-10-28T04:09:21.465Z,24.17
2022-10-28T04:12:12.619Z,27.42
2022-10-28T04:17:43.735Z,18.85
2022-10-28T04:20:28.629Z,23.05
2022-10-28T04:23:05.925Z,16.98
2022-10-28T04:25:41.511Z,18.63
2022-10-28T04:28:36.731Z,25.95
2022-10-28T04:31:30.734Z,35.55
2022-10-28T04:37:05.597Z,18.83
2022-10-28T04:42:34.071Z,23.00
2022-10-28T04:45:11.792Z,26.08
2022-10-28T04:50:35.450Z,28.15
2022-10-28T04:53:17.351Z,24.23
2022-10-28T04:55:58.129Z,22.55
2022-10-28T04:59:06.748Z,29.88
2022-10-28T05:01:45.997Z,23.55
2022-10-28T05:04:26.427Z,25.17
2022-10-28T05:06:59.278Z,20.85
2022-10-28T05:09:44.986Z,26.25
2022-10-28T05:12:19.420Z,25.73
2022-10-28T05:14:54.391Z,32.55
2022-10-28T05:17:29.632Z,25.88
2022-10-28T05:20:04.170Z,35.45
2022-10-28T05:22:40.515Z,35.80
2022-10-28T05:25:16.777Z,32.83
2022-10-28T05:27:48.431Z,28.52
2022-10-28T05:30:17.446Z,37.63
2022-10-28T05:32:44.332Z,34.95
2022-10-28T05:35:20.503Z,42.33
2022-10-28T05:37:47.950Z,33.60
2022-10-28T05:40:52.173Z,35.72
2022-10-28T05:43:22.794Z,33.22
2022-10-28T05:46:00.184Z,31.73
2022-10-28T05:48:27.929Z,21.77
2022-10-28T05:51:06.133Z,34.58
2022-10-28T05:53:44.286Z,22.85
2022-10-28T05:56:17.313Z,35.70
2022-10-28T05:58:55.263Z,37.08
2022-10-28T06:01:28.220Z,29.65
2022-10-28T06:04:03.497Z,37.70
2022-10-28T06:06:32.293Z,29.42
2022-10-28T06:09:07.442Z,31.38
2022-10-28T06:11:35.143Z,38.17
2022-10-28T06:14:28.207Z,34.47
2022-10-28T06:17:10.139Z,31.17
2022-10-28T06:22:37.418Z,25.33
2022-10-28T06:25:10.105Z,25.90
2022-10-28T06:27:41.795Z,26.05
2022-10-28T06:30:26.252Z,29.42
2022-10-28T06:33:03.590Z,41.45
2022-10-28T06:35:49.902Z,33.05
2022-10-28T06:38:27.393Z,37.00
2022-10-28T06:41:06.366Z,26.83
2022-10-28T06:43:52.630Z,37.03
2022-10-28T06:46:37.489Z,27.70
2022-10-28T06:49:10.067Z,28.05
2022-10-28T06:51:54.748Z,33.50
2022-10-28T06:54:43.251Z,32.13
2022-10-28T06:57:24.493Z,26.15
2022-10-28T07:03:29.066Z,31.50
2022-10-28T07:05:55.838Z,26.00
2022-10-28T07:08:46.320Z,32.83
2022-10-28T07:11:33.834Z,24.75
2022-10-28T07:14:09.911Z,24.08
2022-10-28T07:16:38.226Z,21.83
2022-10-28T07:22:03.698Z,23.60
2022-10-28T07:25:00.436Z,21.48
2022-10-28T07:28:00.886Z,18.75
2022-10-28T07:30:42.042Z,17.45
2022-10-28T07:33:39.252Z,14.83
2022-10-28T07:38:55.208Z,18.17
2022-10-28T07:41:35.013Z,27.38
2022-10-28T07:44:01.716Z,19.73
2022-10-28T07:46:38.321Z,23.25
2022-10-28T07:52:04.472Z,21.27
2022-10-28T07:54:45.785Z,20.40
2022-10-28T07:57:19.581Z,18.77
2022-10-28T08:03:21.073Z,15.60
2022-10-28T08:13:12.265Z,18.10
2022-10-28T08:15:41.540Z,12.95
2022-10-28T08:18:14.191Z,13.02
2022-10-28T08:20:44.784Z,19.75
2022-10-28T08:23:14.341Z,18.17
2022-10-28T08:46:50.260Z,18.83
2022-10-28T08:53:07.109Z,13.98
2022-10-28T08:55:43.971Z,12.30
2022-10-28T08:58:40.002Z,14.80
2022-10-28T09:01:41.896Z,13.95
2022-10-28T09:04:39.044Z,26.25
2022-10-28T09:07:22.057Z,20.13
2022-10-28T09:09:52.808Z,13.93
2022-10-28T09:12:41.038Z,19.27
2022-10-28T09:16:02.921Z,16.13
2022-10-28T09:21:51.020Z,17.95
2022-10-28T09:28:00.944Z,17.92
2022-10-28T09:31:14.899Z,20.52
2022-10-28T09:34:05.075Z,14.93
2022-10-28T09:36:41.597Z,18.85
2022-10-28T09:42:28.207Z,18.52
2022-10-28T09:45:14.207Z,13.98
2022-10-28T09:48:18.262Z,13.65
2022-10-28T09:51:16.376Z,16.25
2022-10-28T10:00:37.763Z,12.57
2022-10-28T10:03:18.916Z,14.20
2022-10-28T10:06:14.783Z,14.18
2022-10-28T10:08:50.688Z,12.30
2022-10-28T10:11:34.373Z,12.27
2022-10-28T10:14:24.572Z,15.32
2022-10-28T10:17:02.794Z,14.80
2022-10-28T10:20:11.447Z,12.68
2022-10-28T10:23:25.399Z,15.98
2022-10-28T10:26:15.246Z,14.75
2022-10-28T10:32:36.378Z,14.55
2022-10-28T10:35:28.474Z,18.52
2022-10-28T10:41:46.271Z,18.67
2022-10-28T10:44:44.495Z,21.25
2022-10-28T10:47:33.903Z,19.83
2022-10-28T10:50:42.364Z,19.60
2022-10-28T10:53:27.313Z,23.35
2022-10-28T10:56:14.704Z,11.32
2022-10-28T10:58:50.572Z,13.68
2022-10-28T11:01:30.199Z,13.98
2022-10-28T11:04:19.190Z,11.63
2022-10-28T11:07:38.205Z,15.43
2022-10-28T11:10:50.550Z,15.55
2022-10-28T11:13:33.746Z,12.18
2022-10-28T11:16:32.584Z,12.48
2022-10-28T11:19:37.509Z,13.82
2022-10-28T11:22:39.627Z,10.43
2022-10-28T11:25:35.740Z,20.98
2022-10-28T11:28:45.073Z,15.13
2022-10-28T11:31:47.341Z,17.05
2022-10-28T11:34:45.490Z,11.82
2022-10-28T11:37:35.215Z,20.63
2022-10-28T11:40:25.580Z,13.63
2022-10-28T11:43:15.029Z,16.52
2022-10-28T11:45:51.538Z,10.55
2022-10-28T11:48:39.457Z,15.63
2022-10-28T11:51:37.179Z,14.38
2022-10-28T11:54:27.668Z,12.77
2022-10-28T11:57:17.881Z,12.30
2022-10-28T12:00:23.762Z,19.08
2022-10-28T12:03:14.852Z,13.07
2022-10-28T12:05:52.973Z,17.42
2022-10-28T12:08:48.383Z,8.20
2022-10-28T12:11:37.009Z,16.92
2022-10-28T12:14:26.187Z,12.43
2022-10-28T12:17:17.415Z,14.85
2022-10-28T12:19:57.521Z,20.13
2022-10-28T12:22:49.259Z,12.57
2022-10-28T12:28:41.389Z,17.70
2022-10-28T12:31:29.140Z,21.50
2022-10-28T12:34:03.258Z,8.45
2022-10-28T12:36:35.427Z,14.27
2022-10-28T12:39:22.078Z,15.27
2022-10-28T12:42:16.914Z,13.88
2022-10-28T12:44:53.722Z,12.95
2022-10-28T12:47:30.226Z,11.25
2022-10-28T12:50:11.375Z,14.20
2022-10-28T12:52:56.341Z,19.80
2022-10-28T12:55:41.990Z,9.73
2022-10-28T12:58:37.735Z,10.93
2022-10-28T13:01:29.634Z,14.38
2022-10-28T13:04:32.370Z,13.52
2022-10-28T13:07:34.108Z,14.27
2022-10-28T13:10:17.194Z,14.77
2022-10-28T13:13:30.479Z,16.48
2022-10-28T13:16:28.487Z,21.17
2022-10-28T13:22:49.711Z,13.85
2022-10-28T13:26:07.568Z,19.30
2022-10-28T13:28:51.184Z,12.30
2022-10-28T13:31:59.319Z,8.85
2022-10-28T13:34:45.559Z,19.88
2022-10-28T13:37:35.827Z,14.95
2022-10-28T13:40:53.461Z,22.60
2022-10-28T13:50:37.835Z,23.48
2022-10-28T13:53:38.352Z,13.70
2022-10-28T13:56:53.796Z,16.00
2022-10-28T13:59:36.269Z,11.63
2022-10-28T14:02:36.258Z,14.13
2022-10-28T14:05:30.668Z,21.23
2022-10-28T14:08:05.513Z,14.98
2022-10-28T14:10:59.024Z,17.15
2022-10-28T14:13:44.532Z,19.95
2022-10-28T14:16:30.087Z,18.00
2022-10-28T14:19:35.819Z,16.38
2022-10-28T14:22:20.796Z,22.38
2022-10-28T14:25:00.751Z,23.48
2022-10-28T14:27:43.500Z,17.95
2022-10-28T14:30:31.231Z,23.08
2022-10-28T14:33:27.360Z,13.38
2022-10-28T14:36:21.030Z,16.35
2022-10-28T14:39:28.460Z,23.83
2022-10-28T14:42:31.430Z,21.45
2022-10-28T14:45:36.760Z,22.58
2022-10-28T14:48:51.261Z,14.65
2022-10-28T14:51:46.035Z,23.35
2022-10-28T14:54:23.929Z,17.77
2022-10-28T14:57:15.642Z,20.98
2022-10-28T14:59:54.983Z,16.65
2022-10-28T15:02:29.565Z,16.83
2022-10-28T15:05:05.006Z,25.67
2022-10-28T15:07:37.836Z,18.20
2022-10-28T15:10:26.322Z,25.48
2022-10-28T15:16:54.313Z,16.13
2022-10-28T15:19:43.134Z,15.30
2022-10-28T15:22:48.487Z,11.90
2022-10-28T15:25:30.432Z,16.45
2022-10-28T15:28:01.874Z,18.50
2022-10-28T15:31:07.407Z,24.23
2022-10-28T15:33:49.019Z,17.58
2022-10-28T15:50:30.127Z,25.67
2022-10-28T16:16:49.616Z,12.48
2022-10-28T16:20:02.095Z,16.80
2022-10-28T16:22:58.694Z,20.58
2022-10-28T16:58:26.131Z,24.08
2022-10-28T17:04:23.998Z,16.05
2022-10-28T17:13:39.885Z,22.02
2022-10-28T17:21:46.113Z,20.45
2022-10-28T17:24:26.528Z,22.60
2022-10-28T17:26:58.886Z,20.02
2022-10-28T17:29:49.240Z,22.58
2022-10-28T17:32:26.260Z,22.17
2022-10-28T17:36:24.164Z,25.27
2022-10-28T17:39:00.264Z,17.40
2022-10-28T17:44:47.749Z,20.02
2022-10-28T17:47:27.972Z,23.23
2022-10-28T17:50:19.268Z,28.23
2022-10-28T18:05:26.452Z,26.48
2022-10-28T18:08:32.605Z,22.70
2022-10-28T18:11:58.740Z,23.15
2022-10-28T18:14:37.722Z,22.63
2022-10-28T18:17:24.801Z,23.35
2022-10-28T18:20:24.033Z,21.23
2022-10-28T18:23:35.061Z,33.80
2022-10-28T18:26:22.666Z,28.63
2022-10-28T18:29:08.205Z,31.83
2022-10-28T18:31:48.640Z,32.65
2022-10-28T18:37:29.769Z,23.05
2022-10-28T18:40:36.971Z,42.83
2022-10-28T18:43:20.643Z,29.15
2022-10-28T18:51:46.230Z,27.48
2022-10-28T18:57:43.892Z,28.42
2022-10-28T19:13:27.164Z,30.38
2022-10-28T19:19:16.709Z,28.35
2022-10-28T19:47:13.248Z,38.33
2022-10-28T19:51:09.896Z,45.25
2022-10-28T19:57:55.221Z,30.38
2022-10-28T20:00:33.916Z,42.45
2022-10-28T20:13:24.916Z,31.65
2022-10-28T20:16:22.793Z,37.60
2022-10-28T20:19:20.922Z,36.78
2022-10-28T20:22:20.965Z,33.00
2022-10-28T20:24:59.689Z,32.05
2022-10-28T20:27:46.376Z,25.13
2022-10-28T20:30:22.341Z,30.98
2022-10-28T20:36:32.009Z,39.60
2022-10-28T20:39:29.348Z,36.08
2022-10-28T20:42:36.049Z,27.83
2022-10-28T20:45:45.192Z,40.55
2022-10-28T20:48:27.194Z,24.10
2022-10-28T20:51:06.133Z,35.10
2022-10-28T20:54:15.929Z,28.08
2022-10-28T20:57:05.447Z,23.77
2022-10-28T20:59:57.144Z,29.23
2022-10-28T21:06:01.642Z,27.08
2022-10-28T21:25:46.750Z,39.53
2022-10-28T21:44:03.597Z,34.17
2022-10-28T21:46:43.137Z,39.92
2022-10-28T21:49:36.616Z,31.88
2022-10-28T21:52:40.935Z,31.52
2022-10-28T21:56:00.972Z,35.67
2022-10-28T22:02:20.945Z,32.10
2022-10-28T22:11:50.980Z,45.60
2022-10-28T22:25:20.935Z,33.08
2022-10-28T22:31:37.401Z,26.63
2022-10-28T22:38:16.463Z,44.42
2022-10-28T22:44:23.326Z,33.25
2022-10-28T22:47:42.539Z,25.35
2022-10-28T22:50:50.965Z,31.98
2022-10-28T22:57:21.821Z,35.42
2022-10-28T23:00:11.963Z,42.00
2022-10-28T23:20:19.338Z,34.08
2022-10-28T23:32:31.205Z,39.45
2022-10-28T23:35:32.259Z,39.20
2022-10-28T23:38:05.626Z,33.78
2022-10-28T23:41:14.682Z,37.70
2022-10-28T23:44:15.082Z,45.70
2022-10-28T23:47:45.211Z,47.97
2022-10-28T23:57:07.698Z,37.22
